This is the latest recevied weather packets stored in our database for station/object TG8AKV-17. If no packets are shown the sender has not sent any weather packets the latest 10 day(s).
| Time | Temp. | Humidity | Pressure | Rain* | Wind** | Luminosity | Snow |
|---|---|---|---|---|---|---|---|
| 1777770972 | 16.11° C | 90% | 1015 hPa | 0 mm | - | - | - |
| 1777770371 | 17.22° C | 87% | 1015 hPa | 0 mm | - | - | - |
| 1777769771 | 17.22° C | 87% | 1015 hPa | 0 mm | - | - | - |
| 1777769170 | 17.22° C | 87% | 1015 hPa | 0 mm | - | - | - |
| 1777768569 | 17.22° C | 87% | 1015 hPa | 0 mm | - | - | - |
| 1777767969 | 16.67° C | 87% | 1014 hPa | 0 mm | - | - | - |
| 1777767368 | 16.67° C | 89% | 1014 hPa | 0 mm | - | - | - |
| 1777766767 | 16.11° C | 90% | 1014 hPa | 0 mm | - | - | - |
| 1777766167 | 16.67° C | 90% | 1014 hPa | 0 mm | - | - | - |
| 1777765566 | 17.22° C | 91% | 1014 hPa | 0 mm | - | - | - |
| 1777764966 | 17.22° C | 89% | 1014 hPa | 0 mm | - | - | - |
| 1777764365 | 17.22° C | 86% | 1014 hPa | 0 mm | - | - | - |
| 1777763764 | 17.22° C | 85% | 1014 hPa | 0 mm | - | - | - |
| 1777763164 | 17.78° C | 84% | 1014 hPa | 0 mm | - | - | - |
| 1777762563 | 18.89° C | 80% | 1014 hPa | 0 mm | - | - | - |
| 1777761962 | 20° C | 72% | 1013 hPa | 0 mm | - | - | - |
| 1777761362 | 21.11° C | 68% | 1013 hPa | 0 mm | - | - | - |
| 1777760761 | 21.11° C | 71% | 1013 hPa | 0 mm | - | - | - |
| 1777760161 | 21.11° C | 71% | 1013 hPa | 0 mm | - | - | - |
| 1777759560 | 21.11° C | 71% | 1013 hPa | 0 mm | - | - | - |
| 1777758959 | 21.11° C | 71% | 1013 hPa | 0 mm | - | - | - |
| 1777758359 | 22.78° C | 61% | 1013 hPa | 0 mm | - | - | - |
| 1777757758 | 23.33° C | 52% | 1013 hPa | 0 mm | - | - | - |
| 1777757157 | 23.33° C | 50% | 1012 hPa | 0 mm | - | - | - |
| 1777756557 | 23.33° C | 49% | 1012 hPa | 0 mm | - | - | - |
* Rain latest hour (hover to see other rain measurements)
** Current wind speed in m/s (hover to see current wind gust speed)